Time;durP1;ratioP1;P1;durP2;ratioP2;P2;SDS_P1;SDS_P2;PMS_P1;PMS_P2;Temp;Humidity;BMP_temperature;BMP_pressure;BME280_temperature;BME280_humidity;BME280_pressure;Samples;Min_cycle;Max_cycle;Signal;HPM_P1;HPM_P2
2023/03/10 00:01:53;;;;;;;17.00;10.15;;;;;;;;;;5005982;28;20041;-68
2023/03/10 00:04:19;;;;;;;22.45;12.50;;;1.60;99.90;;;;;;5024917;28;20506;-68
2023/03/10 00:06:45;;;;;;;18.60;10.82;;;;;;;;;;5025475;28;20049;-68
2023/03/10 00:09:11;;;;;;;18.85;12.27;;;;;;;;;;5006833;28;20037;-67
2023/03/10 00:11:37;;;;;;;21.27;12.30;;;;;;;;;;5006923;28;20496;-68
2023/03/10 00:14:03;;;;;;;18.60;11.35;;;;;;;;;;5025541;28;20037;-68
2023/03/10 00:16:29;;;;;;;17.67;10.88;;;1.20;99.90;;;;;;5007268;28;20049;-68
2023/03/10 00:18:55;;;;;;;18.05;10.70;;;;;;;;;;5000612;28;20445;-68
2023/03/10 00:21:29;;;;;;;18.88;10.65;;;;;;;;;;5022711;28;20045;-67
2023/03/10 00:23:55;;;;;;;19.50;10.73;;;;;;;;;;5006816;28;20677;-68
2023/03/10 00:26:22;;;;;;;19.75;11.30;;;;;;;;;;5026928;28;20049;-68
2023/03/10 00:28:48;;;;;;;21.60;11.75;;;;;;;;;;5020067;28;20045;-68
2023/03/10 00:31:15;;;;;;;21.50;11.80;;;;;;;;;;5022566;28;20049;-67
2023/03/10 00:33:41;;;;;;;18.77;11.05;;;;;;;;;;5008871;28;20049;-67
2023/03/10 00:36:07;;;;;;;18.23;10.82;;;;;;;;;;5028119;28;20042;-67
2023/03/10 00:38:34;;;;;;;20.75;12.23;;;;;;;;;;5022397;28;20754;-68
2023/03/10 00:41:00;;;;;;;22.35;12.25;;;;;;;;;;5026053;28;20090;-68
2023/03/10 00:43:27;;;;;;;20.50;11.63;;;;;;;;;;5008436;28;20054;-68
2023/03/10 00:45:53;;;;;;;21.90;12.75;;;;;;;;;;4993922;28;20049;-67
2023/03/10 00:48:19;;;;;;;18.70;11.68;;;;;;;;;;5023740;28;20094;-67
2023/03/10 00:50:44;;;;;;;21.25;12.30;;;1.30;99.90;;;;;;5025286;28;20438;-67
2023/03/10 00:53:10;;;;;;;20.40;11.65;;;;;;;;;;5028175;28;20061;-68
2023/03/10 00:55:36;;;;;;;20.60;12.38;;;;;;;;;;5009916;28;20057;-67
2023/03/10 00:58:02;;;;;;;22.50;12.48;;;;;;;;;;4992035;28;20403;-68
2023/03/10 01:00:28;;;;;;;18.08;11.40;;;;;;;;;;5005554;28;20054;-68
2023/03/10 01:02:54;;;;;;;21.88;12.80;;;;;;;;;;5027413;28;20041;-67
2023/03/10 01:05:20;;;;;;;23.77;13.18;;;1.40;99.90;;;;;;5027856;28;20083;-68
2023/03/10 01:07:46;;;;;;;22.55;13.10;;;;;;;;;;5024877;28;20399;-68
2023/03/10 01:10:12;;;;;;;20.40;11.98;;;;;;;;;;5021070;28;20362;-68
2023/03/10 01:12:38;;;;;;;19.52;12.15;;;;;;;;;;5027125;28;20044;-68
2023/03/10 01:15:05;;;;;;;17.42;11.52;;;;;;;;;;5027889;28;20037;-67
2023/03/10 01:17:30;;;;;;;20.25;11.48;;;;;;;;;;5005820;28;20046;-68
2023/03/10 01:19:57;;;;;;;20.10;12.38;;;;;;;;;;5017972;28;20042;-68
2023/03/10 01:22:23;;;;;;;20.95;11.90;;;;;;;;;;5025604;28;20046;-68
2023/03/10 01:24:49;;;;;;;20.15;12.20;;;;;;;;;;5027074;28;20499;-68
2023/03/10 01:27:15;;;;;;;19.20;11.45;;;;;;;;;;5007271;28;20037;-68
2023/03/10 01:29:40;;;;;;;20.95;11.18;;;1.70;99.90;;;;;;5022931;28;20040;-68
2023/03/10 01:32:07;;;;;;;20.75;12.65;;;;;;;;;;5005599;28;20380;-68
2023/03/10 01:34:33;;;;;;;19.58;11.57;;;;;;;;;;5023706;28;20045;-68
2023/03/10 01:36:59;;;;;;;21.17;11.82;;;;;;;;;;5027147;28;20409;-68
2023/03/10 01:39:25;;;;;;;20.45;12.48;;;;;;;;;;5022385;28;20040;-68
2023/03/10 01:41:51;;;;;;;19.83;11.93;;;;;;;;;;5026693;28;20049;-68
2023/03/10 01:44:18;;;;;;;21.08;11.23;;;;;;;;;;5027169;28;20037;-68
2023/03/10 01:46:52;;;;;;;18.08;11.45;;;;;;;;;;5027206;28;20046;-68
2023/03/10 01:49:30;;;;;;;18.92;11.13;;;;;;;;;;5003182;28;20150;-68
2023/03/10 01:52:17;;;;;;;18.83;10.57;;;;;;;;;;5025071;28;20403;-68
2023/03/10 01:54:43;;;;;;;20.48;11.88;;;;;;;;;;5007314;28;20061;-68
2023/03/10 01:57:10;;;;;;;18.83;10.82;;;;;;;;;;5007226;28;20047;-68
2023/03/10 01:59:37;;;;;;;21.48;12.57;;;;;;;;;;5027255;28;20034;-68
2023/03/10 02:02:03;;;;;;;18.45;11.93;;;;;;;;;;5021664;28;20046;-68
2023/03/10 02:04:37;;;;;;;20.23;12.02;;;;;;;;;;5026638;28;20402;-68
2023/03/10 02:07:04;;;;;;;21.38;12.10;;;;;;;;;;5008857;28;20418;-68
2023/03/10 02:09:30;;;;;;;18.85;11.38;;;;;;;;;;5009078;28;20068;-68
2023/03/10 02:11:57;;;;;;;21.17;12.85;;;;;;;;;;5008834;28;20099;-68
2023/03/10 02:14:23;;;;;;;19.67;12.68;;;;;;;;;;5024778;28;20124;-68
2023/03/10 02:16:49;;;;;;;21.20;12.40;;;;;;;;;;5008089;28;20045;-68
2023/03/10 02:19:21;;;;;;;20.55;11.88;;;;;;;;;;5001814;28;20056;-68
2023/03/10 02:22:07;;;;;;;18.83;11.68;;;;;;;;;;5006849;28;20120;-68
2023/03/10 02:24:33;;;;;;;19.58;11.60;;;;;;;;;;5006058;28;20053;-68
2023/03/10 02:27:02;;;;;;;19.92;12.15;;;;;;;;;;5026013;28;20118;-68
2023/03/10 02:29:40;;;;;;;20.65;12.05;;;;;;;;;;5021282;28;20519;-68
2023/03/10 02:32:07;;;;;;;20.83;12.40;;;;;;;;;;5006075;28;20103;-68
2023/03/10 02:34:33;;;;;;;22.35;13.00;;;;;;;;;;5025999;28;20709;-68
2023/03/10 02:36:59;;;;;;;25.63;14.02;;;;;;;;;;5007595;28;20044;-68
2023/03/10 02:39:25;;;;;;;21.10;13.10;;;;;;;;;;5002516;28;20041;-68
2023/03/10 02:41:51;;;;;;;22.75;13.32;;;;;;;;;;5024758;28;20073;-68
2023/03/10 02:44:19;;;;;;;23.55;14.05;;;;;;;;;;5022970;28;20050;-68
2023/03/10 02:46:45;;;;;;;27.98;14.80;;;;;;;;;;5026319;28;20041;-68
2023/03/10 02:49:11;;;;;;;23.73;14.00;;;;;;;;;;5002279;28;20041;-68
2023/03/10 02:51:41;;;;;;;27.85;14.93;;;;;;;;;;5005632;28;20068;-68
2023/03/10 02:54:08;;;;;;;26.45;16.05;;;;;;;;;;5020626;28;20525;-68
2023/03/10 02:56:34;;;;;;;26.88;15.35;;;;;;;;;;5025103;28;20224;-68
2023/03/10 02:59:01;;;;;;;27.58;15.77;;;;;;;;;;5025238;28;20052;-68
2023/03/10 03:01:28;;;;;;;25.77;14.80;;;;;;;;;;5007636;28;20449;-68
2023/03/10 03:03:54;;;;;;;29.88;15.85;;;;;;;;;;5025134;28;20041;-68
2023/03/10 03:06:21;;;;;;;29.25;17.15;;;;;;;;;;5007067;28;20560;-68
2023/03/10 03:08:47;;;;;;;26.88;14.68;;;;;;;;;;5019022;28;20510;-68
2023/03/10 03:11:13;;;;;;;26.00;16.00;;;;;;;;;;5000628;28;20521;-68
2023/03/10 03:13:39;;;;;;;30.08;16.88;;;;;;;;;;5004287;28;20104;-68
2023/03/10 03:16:06;;;;;;;26.35;16.10;;;;;;;;;;5007670;28;20451;-68
2023/03/10 03:18:32;;;;;;;27.00;15.10;;;;;;;;;;5017528;28;20052;-68
2023/03/10 03:20:58;;;;;;;24.90;14.40;;;;;;;;;;5002463;28;20459;-68
2023/03/10 03:23:24;;;;;;;27.38;17.10;;;;;;;;;;5024279;28;20042;-68
2023/03/10 03:25:50;;;;;;;20.63;12.57;;;;;;;;;;5020874;28;20515;-68
2023/03/10 03:28:16;;;;;;;25.40;14.05;;;;;;;;;;5003366;28;20076;-68
2023/03/10 03:30:43;;;;;;;19.00;11.43;;;;;;;;;;5005219;28;20044;-68
2023/03/10 03:33:09;;;;;;;20.00;11.40;;;;;;;;;;5025239;28;20049;-68
2023/03/10 03:35:36;;;;;;;20.88;11.43;;;;;;;;;;5006073;28;20396;-68
2023/03/10 03:38:04;;;;;;;22.52;12.57;;;;;;;;;;5024724;28;20046;-68
2023/03/10 03:40:32;;;;;;;18.65;10.63;;;;;;;;;;5025377;28;20103;-68
2023/03/10 03:42:58;;;;;;;18.30;11.07;;;;;;;;;;5024458;28;20155;-68
2023/03/10 03:45:25;;;;;;;17.17;10.68;;;;;;;;;;5007389;28;20124;-68
2023/03/10 03:47:51;;;;;;;17.88;10.38;;;;;;;;;;5022848;28;20069;-68
2023/03/10 03:50:18;;;;;;;17.17;9.88;;;;;;;;;;5002802;28;20084;-68
2023/03/10 03:52:45;;;;;;;14.55;9.30;;;;;;;;;;5023432;28;20081;-68
2023/03/10 03:55:12;;;;;;;17.60;9.93;;;;;;;;;;5024911;28;20052;-68
2023/03/10 03:57:38;;;;;;;15.13;9.13;;;;;;;;;;5022707;28;20041;-68
2023/03/10 04:00:11;;;;;;;15.90;10.38;;;;;;;;;;5022898;28;20034;-68
2023/03/10 04:02:37;;;;;;;16.70;10.00;;;;;;;;;;5010029;28;20053;-68
2023/03/10 04:05:03;;;;;;;16.27;10.15;;;;;;;;;;5011291;28;20053;-68
2023/03/10 04:07:29;;;;;;;14.65;9.27;;;;;;;;;;5026108;28;20049;-68
2023/03/10 04:09:56;;;;;;;18.77;10.25;;;;;;;;;;5020202;28;20407;-69
2023/03/10 04:12:24;;;;;;;16.25;8.98;;;;;;;;;;5017511;28;20053;-68
2023/03/10 04:14:50;;;;;;;18.60;9.77;;;;;;;;;;5028953;28;20139;-68
2023/03/10 04:17:16;;;;;;;18.27;9.82;;;;;;;;;;4994535;28;20457;-68
2023/03/10 04:19:42;;;;;;;16.73;9.68;;;;;;;;;;5005738;28;20057;-68
2023/03/10 04:22:08;;;;;;;16.38;10.05;;;;;;;;;;5010355;28;20041;-68
2023/03/10 04:24:37;;;;;;;14.77;9.48;;;;;;;;;;5028498;28;20116;-68
2023/03/10 04:27:03;;;;;;;16.48;9.13;;;;;;;;;;5029041;28;20045;-68
2023/03/10 04:29:29;;;;;;;15.40;9.85;;;;;;;;;;5024663;28;20148;-68
2023/03/10 04:31:55;;;;;;;16.30;9.43;;;;;;;;;;5027512;28;20128;-68
2023/03/10 04:34:21;;;;;;;15.20;9.25;;;;;;;;;;5028528;28;20037;-68
2023/03/10 04:36:47;;;;;;;15.05;9.27;;;;;;;;;;5010817;28;20033;-68
2023/03/10 04:39:13;;;;;;;16.98;10.05;;;;;;;;;;5021307;28;20132;-69
2023/03/10 04:41:39;;;;;;;17.33;9.40;;;;;;;;;;5008561;28;20108;-68
2023/03/10 04:44:05;;;;;;;15.13;9.50;;;;;;;;;;5010696;28;20093;-69
2023/03/10 04:46:31;;;;;;;19.02;9.75;;;;;;;;;;5027858;28;20041;-68
2023/03/10 04:48:57;;;;;;;16.55;9.68;;;;;;;;;;5028361;28;20403;-68
2023/03/10 04:51:23;;;;;;;18.05;9.70;;;;;;;;;;5028384;28;20046;-68
2023/03/10 04:53:49;;;;;;;16.98;9.98;;;;;;;;;;5025858;28;20132;-68
2023/03/10 04:56:15;;;;;;;16.15;9.85;;;;;;;;;;5010137;28;20487;-68
2023/03/10 04:58:41;;;;;;;16.15;9.75;;;;;;;;;;5002229;28;20076;-68
2023/03/10 05:01:08;;;;;;;17.98;9.75;;;;;;;;;;5025949;28;20114;-68
2023/03/10 05:03:35;;;;;;;18.58;10.48;;;;;;;;;;5028226;28;20049;-68
2023/03/10 05:06:00;;;;;;;18.77;10.80;;;;;;;;;;5011293;28;20124;-68
2023/03/10 05:08:26;;;;;;;17.75;10.57;;;;;;;;;;5024541;28;20132;-68
2023/03/10 05:10:52;;;;;;;16.70;9.95;;;;;;;;;;5025116;28;20045;-68
2023/03/10 05:13:18;;;;;;;16.35;9.88;;;;;;;;;;5027495;28;20068;-68
2023/03/10 05:15:44;;;;;;;21.05;11.13;;;;;;;;;;5028479;28;20048;-68
2023/03/10 05:18:11;;;;;;;18.67;10.60;;;;;;;;;;5027895;28;20080;-68
2023/03/10 05:20:37;;;;;;;18.92;10.82;;;;;;;;;;5009825;28;20574;-68
2023/03/10 05:23:03;;;;;;;20.60;11.30;;;;;;;;;;5009710;28;20053;-68
2023/03/10 05:25:31;;;;;;;21.20;10.45;;;;;;;;;;5009301;28;20140;-68
2023/03/10 05:27:56;;;;;;;18.63;11.07;;;;;;;;;;5017085;28;20072;-68
2023/03/10 05:30:22;;;;;;;20.15;11.63;;;1.30;99.90;;;;;;5024125;28;20550;-68
2023/03/10 05:32:48;;;;;;;22.02;11.32;;;;;;;;;;5009579;28;20049;-68
2023/03/10 05:35:14;;;;;;;20.08;10.98;;;;;;;;;;5009567;28;20045;-67
2023/03/10 05:37:41;;;;;;;21.33;12.30;;;;;;;;;;5024527;28;20136;-68
2023/03/10 05:40:12;;;;;;;20.48;12.57;;;;;;;;;;5019121;28;21032;-68
2023/03/10 05:42:38;;;;;;;23.10;12.82;;;;;;;;;;5026281;28;20076;-68
2023/03/10 05:45:05;;;;;;;21.92;12.68;;;;;;;;;;5009083;28;20511;-68
2023/03/10 05:47:32;;;;;;;22.13;12.88;;;1.20;99.90;;;;;;5005991;28;20554;-68
2023/03/10 05:49:58;;;;;;;23.55;13.43;;;;;;;;;;5018717;28;20491;-68
2023/03/10 05:52:24;;;;;;;22.63;12.23;;;;;;;;;;5025764;28;20072;-67
2023/03/10 05:54:50;;;;;;;24.13;12.95;;;;;;;;;;5009056;28;20119;-67
2023/03/10 05:57:16;;;;;;;25.88;12.95;;;;;;;;;;5025694;28;20047;-68
2023/03/10 05:59:42;;;;;;;23.92;12.70;;;;;;;;;;5000020;28;20585;-68
2023/03/10 06:02:09;;;;;;;24.05;12.93;;;;;;;;;;5024454;28;20045;-67
2023/03/10 06:04:35;;;;;;;26.67;13.88;;;;;;;;;;5009402;28;20045;-68
2023/03/10 06:07:01;;;;;;;26.42;14.13;;;;;;;;;;5010500;28;20042;-68
2023/03/10 06:09:28;;;;;;;28.92;15.18;;;;;;;;;;5027477;28;20471;-68
2023/03/10 06:11:54;;;;;;;29.77;15.50;;;;;;;;;;5025939;28;20458;-68
2023/03/10 06:14:20;;;;;;;26.67;15.15;;;;;;;;;;5007698;28;20067;-68
2023/03/10 06:16:50;;;;;;;30.73;15.70;;;;;;;;;;5008195;28;20391;-68
2023/03/10 06:19:17;;;;;;;28.95;15.23;;;1.50;99.90;;;;;;5008076;28;20056;-68
2023/03/10 06:21:43;;;;;;;30.83;15.82;;;;;;;;;;5008313;28;20056;-68
2023/03/10 06:24:09;;;;;;;33.28;15.93;;;;;;;;;;5024737;28;20049;-68
2023/03/10 06:26:34;;;;;;;33.90;17.13;;;;;;;;;;5026435;28;20037;-68
2023/03/10 06:29:00;;;;;;;31.48;17.02;;;;;;;;;;5019174;28;20075;-68
2023/03/10 06:31:27;;;;;;;33.08;16.98;;;;;;;;;;5004225;28;20487;-68
2023/03/10 06:33:53;;;;;;;34.25;18.33;;;;;;;;;;5026567;28;20439;-68
2023/03/10 06:36:20;;;;;;;33.45;17.33;;;;;;;;;;5025583;28;20064;-68
2023/03/10 06:38:46;;;;;;;37.38;17.85;;;;;;;;;;5003882;28;20042;-68
2023/03/10 06:41:12;;;;;;;39.75;17.98;;;;;;;;;;5022855;28;20037;-68
2023/03/10 06:43:38;;;;;;;37.70;18.17;;;;;;;;;;5007874;28;20052;-68
2023/03/10 06:46:06;;;;;;;43.40;20.25;;;;;;;;;;5008332;28;20052;-68
2023/03/10 06:48:32;;;;;;;35.22;18.27;;;;;;;;;;5025967;28;20041;-68
2023/03/10 06:50:58;;;;;;;40.45;19.52;;;;;;;;;;5025339;28;20395;-68
2023/03/10 06:53:25;;;;;;;38.13;18.65;;;;;;;;;;5008075;28;20057;-67
2023/03/10 06:55:59;;;;;;;36.78;18.75;;;;;;;;;;5025594;28;20049;-68
2023/03/10 06:58:25;;;;;;;39.75;20.67;;;;;;;;;;5008034;28;20052;-68
2023/03/10 07:00:51;;;;;;;42.42;19.10;;;;;;;;;;5025689;28;20041;-68
2023/03/10 07:03:17;;;;;;;37.15;18.77;;;;;;;;;;5025739;28;20407;-67
2023/03/10 07:05:43;;;;;;;41.13;19.15;;;;;;;;;;5007611;28;20045;-68
2023/03/10 07:08:09;;;;;;;38.15;18.95;;;;;;;;;;4988082;28;20461;-68
2023/03/10 07:10:35;;;;;;;38.28;19.80;;;;;;;;;;5022387;28;20091;-68
2023/03/10 07:13:01;;;;;;;32.70;16.85;;;;;;;;;;5020000;28;20047;-68
2023/03/10 07:15:28;;;;;;;36.17;18.58;;;1.50;99.90;;;;;;5025408;28;20458;-68
2023/03/10 07:17:55;;;;;;;40.55;20.55;;;;;;;;;;5019478;28;20026;-68
2023/03/10 07:20:21;;;;;;;34.13;18.35;;;;;;;;;;5020925;28;20044;-70
2023/03/10 07:22:47;;;;;;;36.30;18.83;;;;;;;;;;5024695;28;20052;-70
2023/03/10 07:25:13;;;;;;;37.25;18.95;;;;;;;;;;5024988;28;20030;-69
2023/03/10 07:27:39;;;;;;;33.50;18.02;;;;;;;;;;5009640;28;20041;-69
2023/03/10 07:30:05;;;;;;;37.55;18.23;;;;;;;;;;5025264;28;20110;-69
2023/03/10 07:32:31;;;;;;;35.13;18.77;;;;;;;;;;5024767;28;20037;-67
2023/03/10 07:34:57;;;;;;;34.58;17.67;;;;;;;;;;5017577;28;20494;-67
2023/03/10 07:37:23;;;;;;;35.75;17.73;;;;;;;;;;5005073;28;20076;-67
2023/03/10 07:39:49;;;;;;;35.15;16.63;;;;;;;;;;5003360;28;20621;-67
2023/03/10 07:42:15;;;;;;;33.20;17.42;;;;;;;;;;5006535;28;20068;-67
2023/03/10 07:44:41;;;;;;;32.22;17.10;;;;;;;;;;5025080;28;20042;-67
2023/03/10 07:47:07;;;;;;;29.88;15.45;;;;;;;;;;5023888;28;20091;-68
2023/03/10 07:49:33;;;;;;;33.25;16.58;;;;;;;;;;5015869;28;20072;-67
2023/03/10 07:51:59;;;;;;;29.92;15.43;;;;;;;;;;5004149;28;20065;-67
2023/03/10 07:54:25;;;;;;;32.22;16.00;;;;;;;;;;4997628;28;20049;-66
2023/03/10 07:56:51;;;;;;;30.67;16.77;;;;;;;;;;5023591;28;20456;-67
2023/03/10 07:59:17;;;;;;;31.48;15.27;;;;;;;;;;5001329;28;20774;-68
2023/03/10 08:01:43;;;;;;;28.83;15.05;;;;;;;;;;5022138;28;20045;-67
2023/03/10 08:04:11;;;;;;;24.10;13.75;;;;;;;;;;5024881;28;20088;-66
2023/03/10 08:06:37;;;;;;;27.30;13.98;;;;;;;;;;5024422;28;20041;-66
2023/03/10 08:09:03;;;;;;;28.88;14.55;;;;;;;;;;5018852;28;20048;-68
2023/03/10 08:11:29;;;;;;;24.08;12.60;;;;;;;;;;5022158;28;20096;-66
2023/03/10 08:13:55;;;;;;;28.33;14.55;;;;;;;;;;5008614;28;20049;-66
2023/03/10 08:16:22;;;;;;;27.05;14.55;;;;;;;;;;5023840;28;20041;-65
2023/03/10 08:18:53;;;;;;;25.48;13.70;;;;;;;;;;4997862;28;20475;-65
2023/03/10 08:21:19;;;;;;;24.55;13.70;;;;;;;;;;5017311;28;20114;-68
2023/03/10 08:23:45;;;;;;;28.23;14.20;;;;;;;;;;5006841;28;20037;-67
2023/03/10 08:26:13;;;;;;;25.25;13.65;;;;;;;;;;5023982;28;20041;-67
2023/03/10 08:28:40;;;;;;;22.88;12.73;;;;;;;;;;5015489;28;20041;-67
2023/03/10 08:31:10;;;;;;;23.50;13.57;;;;;;;;;;5017675;28;20033;-69
2023/03/10 08:33:36;;;;;;;26.33;14.07;;;;;;;;;;5010882;28;20057;-68
2023/03/10 08:36:05;;;;;;;24.92;13.48;;;;;;;;;;5006255;28;20516;-67
2023/03/10 08:38:31;;;;;;;23.30;12.30;;;;;;;;;;5015763;28;20548;-67
2023/03/10 08:40:58;;;;;;;25.95;13.48;;;;;;;;;;5016798;28;20041;-68
2023/03/10 08:43:23;;;;;;;25.80;13.05;;;;;;;;;;5006485;28;20051;-65
2023/03/10 08:45:49;;;;;;;23.50;13.20;;;;;;;;;;5015268;28;20037;-67
2023/03/10 08:48:15;;;;;;;25.75;13.57;;;;;;;;;;5023127;28;20074;-67
2023/03/10 08:50:41;;;;;;;22.13;12.70;;;;;;;;;;5005779;28;20041;-67
2023/03/10 08:53:07;;;;;;;25.30;13.52;;;;;;;;;;5009696;28;20053;-66
2023/03/10 08:55:33;;;;;;;25.60;13.07;;;;;;;;;;5026052;28;20483;-67
2023/03/10 08:57:59;;;;;;;25.17;13.75;;;;;;;;;;5027025;28;20038;-67
2023/03/10 09:00:26;;;;;;;24.08;13.10;;;1.60;99.90;;;;;;5011060;28;20049;-67
2023/03/10 09:02:52;;;;;;;23.30;13.15;;;;;;;;;;5025513;28;20053;-67
2023/03/10 09:05:18;;;;;;;25.67;14.25;;;;;;;;;;5008253;28;20045;-67
2023/03/10 09:07:44;;;;;;;22.48;12.88;;;;;;;;;;5020286;28;20072;-67
2023/03/10 09:10:10;;;;;;;24.40;13.40;;;;;;;;;;5004441;28;20128;-67
2023/03/10 09:12:36;;;;;;;22.42;12.77;;;;;;;;;;5023479;28;20041;-67
2023/03/10 09:15:02;;;;;;;24.25;13.30;;;;;;;;;;5007155;28;20112;-67
2023/03/10 09:17:28;;;;;;;21.95;12.32;;;;;;;;;;5001528;28;20046;-67
2023/03/10 09:19:54;;;;;;;23.88;13.23;;;;;;;;;;5001493;28;20510;-66
2023/03/10 09:22:20;;;;;;;22.77;12.00;;;;;;;;;;5026294;28;20042;-67
2023/03/10 09:24:46;;;;;;;21.73;12.10;;;;;;;;;;5010284;28;20575;-67
2023/03/10 09:27:12;;;;;;;21.25;11.73;;;;;;;;;;5012723;28;20167;-66
2023/03/10 09:29:38;;;;;;;24.13;12.63;;;;;;;;;;5009723;28;20052;-67
2023/03/10 09:32:04;;;;;;;26.48;13.85;;;;;;;;;;5025737;28;20503;-67
2023/03/10 09:34:30;;;;;;;25.45;13.38;;;;;;;;;;5026529;28;20099;-67
2023/03/10 09:36:56;;;;;;;22.55;13.02;;;;;;;;;;5007632;28;20045;-66
2023/03/10 09:39:22;;;;;;;23.40;13.80;;;;;;;;;;5007618;28;20037;-67
2023/03/10 09:42:00;;;;;;;22.55;12.82;;;;;;;;;;4998062;28;20045;-67
2023/03/10 09:44:44;;;;;;;27.02;14.13;;;;;;;;;;5022902;28;20037;-67
2023/03/10 09:47:18;;;;;;;24.50;12.95;;;;;;;;;;5013750;28;20047;-67
2023/03/10 09:50:07;;;;;;;28.52;14.43;;;;;;;;;;5002146;28;20045;-71
2023/03/10 09:52:33;;;;;;;28.38;13.98;;;;;;;;;;5005834;28;20423;-69
2023/03/10 09:55:05;;;;;;;28.90;15.40;;;;;;;;;;5005285;28;20056;-69
2023/03/10 09:57:32;;;;;;;29.27;15.35;;;;;;;;;;5000110;28;20054;-67
2023/03/10 10:00:00;;;;;;;31.23;16.88;;;;;;;;;;4998625;28;20038;-68
2023/03/10 10:02:34;;;;;;;30.80;16.92;;;;;;;;;;5004484;28;20070;-69
2023/03/10 10:05:05;;;;;;;30.77;16.08;;;1.50;99.90;;;;;;5003953;28;20096;-70
2023/03/10 10:07:43;;;;;;;32.17;16.85;;;;;;;;;;5003613;28;20045;-69
2023/03/10 10:10:15;;;;;;;32.38;15.88;;;;;;;;;;4996994;28;20056;-70
2023/03/10 10:12:43;;;;;;;31.45;16.25;;;;;;;;;;5004396;28;20052;-69
2023/03/10 10:15:24;;;;;;;31.70;17.25;;;1.40;99.90;;;;;;5002823;28;20405;-69
2023/03/10 10:18:10;;;;;;;35.63;17.25;;;;;;;;;;4974257;28;20897;-71
2023/03/10 10:20:39;;;;;;;32.00;17.08;;;;;;;;;;4999056;28;20064;-72
2023/03/10 10:23:34;;;;;;;29.42;16.55;;;1.40;99.90;;;;;;5005289;28;20038;-68
2023/03/10 10:26:09;;;;;;;31.75;16.42;;;1.50;99.90;;;;;;4992425;28;20046;-67
2023/03/10 10:28:54;;;;;;;30.63;16.65;;;;;;;;;;5006303;28;20072;-69
2023/03/10 10:31:23;;;;;;;30.98;15.57;;;1.40;99.90;;;;;;5005389;28;20042;-66
2023/03/10 10:33:53;;;;;;;26.83;15.10;;;;;;;;;;5006151;28;20046;-67
2023/03/10 10:36:19;;;;;;;30.63;16.50;;;;;;;;;;5004927;28;20050;-67
2023/03/10 10:38:49;;;;;;;29.23;15.88;;;;;;;;;;5004756;28;20176;-67
2023/03/10 10:41:16;;;;;;;28.42;15.95;;;;;;;;;;5003466;28;20611;-67
2023/03/10 10:43:44;;;;;;;30.25;16.25;;;;;;;;;;5004138;28;20061;-66
2023/03/10 10:46:11;;;;;;;29.13;15.60;;;;;;;;;;5006284;28;20046;-68
2023/03/10 10:48:44;;;;;;;27.77;15.43;;;1.50;99.90;;;;;;4998316;28;20100;-67
2023/03/10 10:51:31;;;;;;;32.42;16.55;;;;;;;;;;5001743;28;20042;-68
2023/03/10 10:53:58;;;;;;;27.85;15.30;;;;;;;;;;5003051;28;20104;-67
2023/03/10 10:56:24;;;;;;;29.33;15.02;;;;;;;;;;5006643;28;20045;-67
2023/03/10 10:59:01;;;;;;;27.08;15.40;;;;;;;;;;5000974;28;20108;-67
2023/03/10 11:01:27;;;;;;;24.67;14.02;;;;;;;;;;4985510;28;20046;-67
2023/03/10 11:04:07;;;;;;;27.15;14.90;;;;;;;;;;5004922;28;20594;-67
2023/03/10 11:06:36;;;;;;;30.65;15.65;;;;;;;;;;5004116;28;20050;-67
2023/03/10 11:09:17;;;;;;;24.83;13.55;;;1.70;99.90;;;;;;5000215;28;20046;-67
2023/03/10 11:11:53;;;;;;;28.10;14.45;;;;;;;;;;5003039;28;20068;-66
2023/03/10 11:14:19;;;;;;;25.38;13.65;;;;;;;;;;5006092;28;20052;-67
2023/03/10 11:16:55;;;;;;;28.23;15.20;;;;;;;;;;5004846;28;20152;-67
2023/03/10 11:19:30;;;;;;;26.50;14.25;;;;;;;;;;4997060;28;20042;-68
2023/03/10 11:22:01;;;;;;;25.67;14.15;;;;;;;;;;5004776;28;20061;-70
2023/03/10 11:24:42;;;;;;;23.83;13.60;;;;;;;;;;5005934;28;20033;-68
2023/03/10 11:27:08;;;;;;;28.48;14.50;;;;;;;;;;5002831;28;20077;-67
2023/03/10 11:29:43;;;;;;;28.25;15.00;;;;;;;;;;5001670;28;20189;-68
2023/03/10 11:32:20;;;;;;;28.90;14.38;;;;;;;;;;5003913;28;20041;-67
2023/03/10 11:34:48;;;;;;;27.75;14.57;;;;;;;;;;5004071;28;20053;-67
2023/03/10 11:37:29;;;;;;;26.92;14.95;;;1.30;99.90;;;;;;5004667;28;20046;-67
2023/03/10 11:39:55;;;;;;;29.52;14.68;;;;;;;;;;4999770;28;20050;-66
2023/03/10 11:42:38;;;;;;;28.02;15.00;;;1.30;99.90;;;;;;5002781;28;20046;-67
2023/03/10 11:45:47;;;;;;;25.88;13.77;;;1.40;99.90;;;;;;5000857;28;20073;-68
2023/03/10 11:48:23;;;;;;;27.73;13.90;;;;;;;;;;4960229;28;20060;-69
2023/03/10 11:50:49;;;;;;;23.10;13.07;;;;;;;;;;5000815;28;20499;-69
2023/03/10 11:53:36;;;;;;;23.33;13.00;;;;;;;;;;5004088;28;20062;-70
2023/03/10 11:56:04;;;;;;;23.10;13.38;;;1.60;99.90;;;;;;4992856;28;20142;-70
2023/03/10 11:58:36;;;;;;;23.38;12.60;;;;;;;;;;4997173;28;20058;-70
2023/03/10 12:01:02;;;;;;;23.70;14.18;;;;;;;;;;5005614;28;20589;-69
2023/03/10 12:03:38;;;;;;;25.48;13.23;;;;;;;;;;5003036;28;20193;-69
2023/03/10 12:06:07;;;;;;;22.20;12.68;;;;;;;;;;5002235;28;20121;-68
2023/03/10 12:08:34;;;;;;;23.60;13.52;;;;;;;;;;4998871;28;20208;-68
2023/03/10 12:11:00;;;;;;;24.90;13.02;;;;;;;;;;5000809;28;20372;-68
2023/03/10 12:13:29;;;;;;;26.77;14.13;;;;;;;;;;5003433;28;20049;-68
2023/03/10 12:15:58;;;;;;;26.17;13.63;;;;;;;;;;4994983;28;20494;-68
2023/03/10 12:18:24;;;;;;;25.65;14.82;;;;;;;;;;4998755;28;20496;-68
2023/03/10 12:21:10;;;;;;;23.10;13.75;;;;;;;;;;4995007;28;20041;-68
2023/03/10 12:23:41;;;;;;;23.27;13.48;;;;;;;;;;5007597;28;20396;-68
2023/03/10 12:26:08;;;;;;;23.15;13.10;;;;;;;;;;5009072;28;20073;-68
2023/03/10 12:28:34;;;;;;;26.02;13.80;;;;;;;;;;5008657;28;20048;-68
2023/03/10 12:31:20;;;;;;;23.20;12.95;;;;;;;;;;5007324;28;20360;-68
2023/03/10 12:33:48;;;;;;;26.83;14.48;;;;;;;;;;4996470;28;20054;-68
2023/03/10 12:36:32;;;;;;;25.65;13.40;;;;;;;;;;5007667;28;20042;-68
2023/03/10 12:38:58;;;;;;;24.33;12.90;;;;;;;;;;5006984;28;20065;-68
2023/03/10 12:41:28;;;;;;;23.83;12.85;;;;;;;;;;5008266;28;20400;-68
2023/03/10 12:44:01;;;;;;;23.15;13.75;;;;;;;;;;5002946;28;20077;-68
2023/03/10 12:46:45;;;;;;;21.75;13.23;;;;;;;;;;5006977;28;20044;-68
2023/03/10 12:49:14;;;;;;;26.80;13.70;;;;;;;;;;5001202;28;20514;-68
2023/03/10 12:51:42;;;;;;;22.77;13.18;;;;;;;;;;5007553;28;20072;-69
2023/03/10 12:54:23;;;;;;;21.58;12.20;;;;;;;;;;5007806;28;20057;-69
2023/03/10 12:56:51;;;;;;;23.98;13.50;;;;;;;;;;5024202;28;20077;-69
2023/03/10 12:59:31;;;;;;;24.15;13.18;;;;;;;;;;5010077;28;20593;-68
2023/03/10 13:01:57;;;;;;;23.58;13.80;;;;;;;;;;5026841;28;20059;-68
2023/03/10 13:04:25;;;;;;;26.20;13.45;;;1.70;99.90;;;;;;5031365;28;20049;-68
2023/03/10 13:06:55;;;;;;;26.42;13.80;;;;;;;;;;5012764;28;20080;-69
2023/03/10 13:09:26;;;;;;;23.50;13.18;;;;;;;;;;5023574;28;20458;-69
2023/03/10 13:12:04;;;;;;;22.15;12.68;;;;;;;;;;5008020;28;20041;-68
2023/03/10 13:14:40;;;;;;;23.75;13.00;;;1.60;99.90;;;;;;5030659;28;20052;-68
2023/03/10 13:17:08;;;;;;;26.50;14.45;;;;;;;;;;5026413;28;20513;-68
2023/03/10 13:19:35;;;;;;;23.50;13.77;;;;;;;;;;5001007;28;20551;-68
2023/03/10 13:22:03;;;;;;;22.02;12.48;;;;;;;;;;5024832;28;20048;-68
2023/03/10 13:24:29;;;;;;;22.92;12.93;;;;;;;;;;4996398;28;20120;-67
2023/03/10 13:27:07;;;;;;;22.45;13.82;;;;;;;;;;5024400;28;20442;-68
2023/03/10 13:29:33;;;;;;;24.75;13.35;;;;;;;;;;4996298;28;20057;-68
2023/03/10 13:31:59;;;;;;;20.75;12.52;;;;;;;;;;5008923;28;20052;-67
2023/03/10 13:34:26;;;;;;;26.17;13.55;;;;;;;;;;5011305;28;20042;-68
2023/03/10 13:36:52;;;;;;;24.02;13.52;;;1.60;99.90;;;;;;5028130;28;20499;-68
2023/03/10 13:39:20;;;;;;;24.30;14.07;;;;;;;;;;5010210;28;20037;-67
2023/03/10 13:41:51;;;;;;;24.50;12.63;;;;;;;;;;5009328;28;20041;-68
2023/03/10 13:44:21;;;;;;;24.08;12.80;;;;;;;;;;5027197;28;20041;-66
2023/03/10 13:46:52;;;;;;;23.70;13.48;;;;;;;;;;5027805;28;20049;-69
2023/03/10 13:49:20;;;;;;;23.45;12.02;;;1.40;99.90;;;;;;5026658;28;20041;-67
2023/03/10 13:51:53;;;;;;;23.05;12.65;;;;;;;;;;5027093;28;20054;-68
2023/03/10 13:54:21;;;;;;;21.70;12.63;;;;;;;;;;5008778;28;20060;-68
2023/03/10 13:56:49;;;;;;;24.20;13.80;;;;;;;;;;5004979;28;20045;-68
2023/03/10 13:59:17;;;;;;;21.88;12.65;;;;;;;;;;5000512;28;20569;-68
2023/03/10 14:01:45;;;;;;;23.83;13.20;;;;;;;;;;5020975;28;20034;-66
2023/03/10 14:04:15;;;;;;;23.90;13.02;;;;;;;;;;5008561;28;20140;-69
2023/03/10 14:06:41;;;;;;;22.00;12.57;;;;;;;;;;5009194;28;20041;-69
2023/03/10 14:09:21;;;;;;;23.80;12.57;;;;;;;;;;5005405;28;20050;-64
2023/03/10 14:11:47;;;;;;;23.02;13.02;;;;;;;;;;5024373;28;20030;-68
2023/03/10 14:14:24;;;;;;;24.75;13.75;;;;;;;;;;5009400;28;20518;-69
2023/03/10 14:20:24;;;;;;;23.30;12.75;;;;;;;;;;5026519;28;20095;-68